createdAt,value
2023-02-13T00:00:20.106Z,7.15
2023-02-13T00:02:46.734Z,7.55
2023-02-13T00:05:13.378Z,5.72
2023-02-13T00:07:39.982Z,5.57
2023-02-13T00:10:07.845Z,4.72
2023-02-13T00:12:34.969Z,4.63
2023-02-13T00:15:01.942Z,5.25
2023-02-13T00:17:28.547Z,4.63
2023-02-13T00:19:55.134Z,4.70
2023-02-13T00:22:21.694Z,4.72
2023-02-13T00:24:48.219Z,5.03
2023-02-13T00:27:14.752Z,5.75
2023-02-13T00:29:41.298Z,4.78
2023-02-13T00:32:08.043Z,5.78
2023-02-13T00:34:34.854Z,5.28
2023-02-13T00:37:03.220Z,5.13
2023-02-13T00:39:29.866Z,6.15
2023-02-13T00:41:56.484Z,5.72
2023-02-13T00:44:23.147Z,5.43
2023-02-13T00:46:49.781Z,6.70
2023-02-13T00:49:17.027Z,5.40
2023-02-13T00:51:43.591Z,5.32
2023-02-13T00:54:10.175Z,4.38
2023-02-13T00:56:36.848Z,4.50
2023-02-13T00:59:03.517Z,5.18
2023-02-13T01:01:30.142Z,5.57
2023-02-13T01:03:57.308Z,5.68
2023-02-13T01:06:23.952Z,5.20
2023-02-13T01:08:50.523Z,5.63
2023-02-13T01:11:18.964Z,5.82
2023-02-13T01:13:46.307Z,5.30
2023-02-13T01:16:13.158Z,5.53
2023-02-13T01:18:39.930Z,5.38
2023-02-13T01:21:09.194Z,5.65
2023-02-13T01:23:39.181Z,5.90
2023-02-13T01:26:07.721Z,6.80
2023-02-13T01:28:35.157Z,6.43
2023-02-13T01:31:02.809Z,6.55
2023-02-13T01:33:30.361Z,6.28
2023-02-13T01:35:56.978Z,6.40
2023-02-13T01:38:23.624Z,5.53
2023-02-13T01:40:52.999Z,6.47
2023-02-13T01:43:23.392Z,5.78
2023-02-13T01:45:54.832Z,6.45
2023-02-13T01:48:25.140Z,6.75
2023-02-13T01:51:17.374Z,7.43
2023-02-13T01:53:49.860Z,6.90
2023-02-13T01:56:25.512Z,6.70
2023-02-13T01:58:57.402Z,5.90
2023-02-13T02:01:26.108Z,5.35
2023-02-13T02:04:04.846Z,4.18
2023-02-13T02:06:38.308Z,4.45
2023-02-13T02:09:16.010Z,4.30
2023-02-13T02:11:51.340Z,3.53
2023-02-13T02:14:19.062Z,4.22
2023-02-13T02:16:46.546Z,3.30
2023-02-13T02:19:26.487Z,3.38
2023-02-13T02:22:30.323Z,3.17
2023-02-13T02:25:18.096Z,4.10
2023-02-13T02:27:54.011Z,4.07
2023-02-13T02:30:24.039Z,3.20
2023-02-13T02:33:17.056Z,3.35
2023-02-13T02:35:51.487Z,3.33
2023-02-13T02:38:47.611Z,3.97
2023-02-13T02:41:43.667Z,3.42
2023-02-13T02:44:25.466Z,2.90
2023-02-13T02:47:23.450Z,4.35
2023-02-13T02:50:03.256Z,3.78
2023-02-13T02:52:54.510Z,3.22
2023-02-13T02:55:46.201Z,3.72
2023-02-13T02:58:51.795Z,3.70
2023-02-13T03:01:43.709Z,3.47
2023-02-13T03:04:39.414Z,3.10
2023-02-13T03:10:05.425Z,3.40
2023-02-13T03:12:57.660Z,2.85
2023-02-13T03:15:26.422Z,3.28
2023-02-13T03:18:12.581Z,3.42
2023-02-13T03:21:17.727Z,3.05
2023-02-13T03:24:00.181Z,3.03
2023-02-13T03:26:50.344Z,2.92
2023-02-13T03:29:45.026Z,3.83
2023-02-13T03:32:38.934Z,2.78
2023-02-13T03:36:05.774Z,2.93
2023-02-13T03:38:32.268Z,3.83
2023-02-13T03:41:20.055Z,2.75
2023-02-13T03:44:11.158Z,3.35
2023-02-13T03:46:42.849Z,3.60
2023-02-13T03:49:35.602Z,3.58
2023-02-13T03:52:18.726Z,3.55
2023-02-13T03:55:10.326Z,3.47
2023-02-13T03:57:59.130Z,3.30
2023-02-13T04:00:33.377Z,4.45
2023-02-13T04:03:08.253Z,3.85
2023-02-13T04:05:44.409Z,4.35
2023-02-13T04:08:11.879Z,4.20
2023-02-13T04:10:49.086Z,4.35
2023-02-13T04:13:30.068Z,5.47
2023-02-13T04:16:04.313Z,4.78
2023-02-13T04:18:33.521Z,5.53
2023-02-13T04:21:07.772Z,5.43
2023-02-13T04:23:36.052Z,4.25
2023-02-13T04:26:08.059Z,4.20
2023-02-13T04:28:34.830Z,4.00
2023-02-13T04:31:01.927Z,4.90
2023-02-13T04:33:28.827Z,4.47
2023-02-13T04:35:55.427Z,3.63
2023-02-13T04:38:21.927Z,4.65
2023-02-13T04:40:48.517Z,5.22
2023-02-13T04:43:15.109Z,5.30
2023-02-13T04:45:41.700Z,4.70
2023-02-13T04:48:09.087Z,6.95
2023-02-13T04:50:35.572Z,7.85
2023-02-13T04:53:02.063Z,6.45
2023-02-13T04:55:28.994Z,10.70
2023-02-13T04:57:56.663Z,6.80
2023-02-13T05:00:25.702Z,10.82
2023-02-13T05:02:52.690Z,8.30
2023-02-13T05:05:20.301Z,8.40
2023-02-13T05:07:47.163Z,7.85
2023-02-13T05:10:13.901Z,8.10
2023-02-13T05:12:40.833Z,8.75
2023-02-13T05:15:07.981Z,6.10
2023-02-13T05:17:34.531Z,7.72
2023-02-13T05:20:01.148Z,6.72
2023-02-13T05:22:46.374Z,5.18
2023-02-13T05:25:13.171Z,6.20
2023-02-13T05:27:39.859Z,3.95
2023-02-13T05:30:07.221Z,4.97
2023-02-13T05:32:33.904Z,4.18
2023-02-13T05:35:02.110Z,4.07
2023-02-13T05:37:30.644Z,4.53
2023-02-13T05:39:57.184Z,4.60
2023-02-13T05:42:23.742Z,5.95
2023-02-13T05:44:50.805Z,3.83
2023-02-13T05:47:17.535Z,4.63
2023-02-13T05:49:44.040Z,4.38
2023-02-13T05:52:10.692Z,5.25
2023-02-13T05:54:38.584Z,4.85
2023-02-13T05:57:05.278Z,4.43
2023-02-13T05:59:31.922Z,4.95
2023-02-13T06:01:58.416Z,4.65
2023-02-13T06:04:25.014Z,4.72
2023-02-13T06:06:51.692Z,5.47
2023-02-13T06:09:18.284Z,4.32
2023-02-13T06:11:44.815Z,4.50
2023-02-13T06:14:12.254Z,3.65
2023-02-13T06:16:38.851Z,3.40
2023-02-13T06:19:05.440Z,3.75
2023-02-13T06:21:33.500Z,3.15
2023-02-13T06:24:00.028Z,3.45
2023-02-13T06:26:26.566Z,2.67
2023-02-13T06:28:53.400Z,3.60
2023-02-13T06:31:19.991Z,3.50
2023-02-13T06:33:46.640Z,2.92
2023-02-13T06:36:13.404Z,2.75
2023-02-13T06:38:39.976Z,2.95
2023-02-13T06:41:06.990Z,3.00
2023-02-13T06:43:33.486Z,2.97
2023-02-13T06:45:59.987Z,2.95
2023-02-13T06:48:26.504Z,2.70
2023-02-13T06:50:53.259Z,2.63
2023-02-13T06:53:24.831Z,2.50
2023-02-13T06:55:53.458Z,2.45
2023-02-13T06:58:21.590Z,2.60
2023-02-13T07:00:48.776Z,2.40
2023-02-13T07:03:15.302Z,2.13
2023-02-13T07:05:43.323Z,2.88
2023-02-13T07:08:11.872Z,3.17
2023-02-13T07:10:39.255Z,2.80
2023-02-13T07:13:06.459Z,2.90
2023-02-13T07:15:34.660Z,3.42
2023-02-13T07:18:01.534Z,2.40
2023-02-13T07:20:28.840Z,2.65
2023-02-13T07:23:04.127Z,2.63
2023-02-13T07:25:31.551Z,2.55
2023-02-13T07:28:06.316Z,2.25
2023-02-13T07:30:34.530Z,2.90
2023-02-13T07:33:05.058Z,2.67
2023-02-13T07:35:32.085Z,2.05
2023-02-13T07:38:00.443Z,2.58
2023-02-13T07:40:27.199Z,2.47
2023-02-13T07:42:53.837Z,2.75
2023-02-13T07:45:20.561Z,2.45
2023-02-13T07:47:47.055Z,2.13
2023-02-13T07:50:14.135Z,2.45
2023-02-13T07:52:40.698Z,2.28
2023-02-13T07:55:07.837Z,2.13
2023-02-13T07:57:34.484Z,2.42
2023-02-13T08:00:01.062Z,2.13
2023-02-13T08:02:27.679Z,5.82
2023-02-13T08:04:54.198Z,4.22
2023-02-13T08:07:20.749Z,4.57
2023-02-13T08:10:05.859Z,4.53
2023-02-13T08:12:35.932Z,4.68
2023-02-13T08:15:02.898Z,5.80
2023-02-13T08:17:29.562Z,5.00
2023-02-13T08:19:56.165Z,4.20
2023-02-13T08:22:22.661Z,3.92
2023-02-13T08:24:49.249Z,4.85
2023-02-13T08:27:16.063Z,3.33
2023-02-13T08:29:42.655Z,3.15
2023-02-13T08:32:09.779Z,3.60
2023-02-13T08:34:36.590Z,3.47
2023-02-13T08:37:03.615Z,3.53
2023-02-13T08:39:30.125Z,3.55
2023-02-13T08:41:56.713Z,3.63
2023-02-13T08:44:23.269Z,3.08
2023-02-13T08:46:49.824Z,3.45
2023-02-13T08:49:16.403Z,3.13
2023-02-13T08:51:43.045Z,2.80
2023-02-13T08:54:09.550Z,3.17
2023-02-13T08:56:36.142Z,3.22
2023-02-13T08:59:02.806Z,2.60
2023-02-13T09:01:29.514Z,3.33
2023-02-13T09:03:56.047Z,2.78
2023-02-13T09:06:23.096Z,3.05
2023-02-13T09:08:49.735Z,2.88
2023-02-13T09:11:16.283Z,2.63
2023-02-13T09:13:43.085Z,3.22
2023-02-13T09:16:11.275Z,2.53
2023-02-13T09:18:37.786Z,2.90
2023-02-13T09:21:10.945Z,2.50
2023-02-13T09:23:40.138Z,2.63
2023-02-13T09:26:10.007Z,4.60
2023-02-13T09:28:37.446Z,3.58
2023-02-13T09:31:16.585Z,3.05
2023-02-13T09:33:44.718Z,2.60
2023-02-13T09:36:19.217Z,2.22
2023-02-13T09:38:47.724Z,3.08
2023-02-13T09:41:19.969Z,1.75
2023-02-13T09:43:59.226Z,3.05
2023-02-13T09:46:33.698Z,2.78
2023-02-13T09:49:05.668Z,2.50
2023-02-13T09:51:32.365Z,2.90
2023-02-13T09:54:05.327Z,2.72
2023-02-13T09:56:49.992Z,2.88
2023-02-13T09:59:57.103Z,2.65
2023-02-13T10:02:42.524Z,2.10
2023-02-13T10:05:32.969Z,2.40
2023-02-13T10:08:34.089Z,2.53
2023-02-13T10:11:38.433Z,2.15
2023-02-13T10:14:31.726Z,2.28
2023-02-13T10:17:05.596Z,2.97
2023-02-13T10:19:41.547Z,2.83
2023-02-13T10:22:38.668Z,3.25
2023-02-13T10:25:13.441Z,4.43
2023-02-13T10:28:10.961Z,2.20
2023-02-13T10:31:12.104Z,2.13
2023-02-13T10:33:51.343Z,2.00
2023-02-13T10:36:30.605Z,3.10
2023-02-13T10:39:02.335Z,2.70
2023-02-13T10:41:47.736Z,2.28
2023-02-13T10:44:26.432Z,2.88
2023-02-13T10:47:15.038Z,2.15
2023-02-13T10:50:14.024Z,2.53
2023-02-13T10:52:52.432Z,2.25
2023-02-13T10:55:34.936Z,1.90
2023-02-13T10:58:09.746Z,1.85
2023-02-13T11:01:09.714Z,2.17
2023-02-13T11:03:36.220Z,1.60
2023-02-13T11:06:08.100Z,2.08
2023-02-13T11:08:43.500Z,1.75
2023-02-13T11:11:30.385Z,1.80
2023-02-13T11:14:31.695Z,1.50
2023-02-13T11:17:07.498Z,1.73
2023-02-13T11:19:40.191Z,1.67
2023-02-13T11:22:16.024Z,2.15
2023-02-13T11:24:52.486Z,1.55
2023-02-13T11:27:26.839Z,1.58
2023-02-13T11:29:56.842Z,1.58
2023-02-13T11:32:26.174Z,1.48
2023-02-13T11:34:54.801Z,1.67
2023-02-13T11:37:25.391Z,1.30
2023-02-13T11:39:55.197Z,1.48
2023-02-13T11:42:29.181Z,1.75
2023-02-13T11:45:08.001Z,2.13
2023-02-13T11:47:41.090Z,1.30
2023-02-13T11:50:20.490Z,1.65
2023-02-13T11:53:09.432Z,1.30
2023-02-13T11:55:42.530Z,1.77
2023-02-13T11:58:12.160Z,1.45
2023-02-13T12:00:41.450Z,1.67
2023-02-13T12:03:29.524Z,1.25
2023-02-13T12:06:04.943Z,1.75
2023-02-13T12:08:34.084Z,2.40
2023-02-13T12:11:03.237Z,1.95
2023-02-13T12:13:35.525Z,1.50
2023-02-13T12:16:06.794Z,1.58
2023-02-13T12:18:38.520Z,2.05
2023-02-13T12:21:12.554Z,1.27
2023-02-13T12:26:40.572Z,1.13
2023-02-13T12:29:19.740Z,1.00
2023-02-13T12:32:40.739Z,1.58
2023-02-13T12:35:42.442Z,1.45
2023-02-13T12:38:14.864Z,1.23
2023-02-13T12:40:58.641Z,1.65
2023-02-13T12:43:59.659Z,1.77
2023-02-13T12:46:34.898Z,1.33
2023-02-13T12:49:39.340Z,1.20
2023-02-13T12:52:24.655Z,1.50
2023-02-13T12:55:15.908Z,1.35
2023-02-13T12:58:15.852Z,1.50
2023-02-13T13:01:05.540Z,1.15
2023-02-13T13:04:04.264Z,1.38
2023-02-13T13:07:10.227Z,1.17
2023-02-13T13:10:03.999Z,1.45
2023-02-13T13:12:43.625Z,1.40
2023-02-13T13:15:38.036Z,1.63
2023-02-13T13:18:19.305Z,1.90
2023-02-13T13:21:10.806Z,1.35
2023-02-13T13:24:00.532Z,1.77
2023-02-13T13:26:38.725Z,1.33
2023-02-13T13:29:28.795Z,1.10
2023-02-13T13:32:00.894Z,1.90
2023-02-13T13:34:28.162Z,1.25
2023-02-13T13:37:12.878Z,1.77
2023-02-13T13:40:14.927Z,1.27
2023-02-13T13:43:00.285Z,1.45
2023-02-13T13:46:01.691Z,1.42
2023-02-13T13:48:58.151Z,1.23
2023-02-13T13:51:25.273Z,1.38
2023-02-13T13:54:01.460Z,1.75
2023-02-13T13:56:54.181Z,1.20
2023-02-13T13:59:51.446Z,1.52
2023-02-13T14:02:18.090Z,1.88
2023-02-13T14:05:01.516Z,1.73
2023-02-13T14:07:35.337Z,1.67
2023-02-13T14:10:01.932Z,1.48
2023-02-13T14:12:28.409Z,1.42
2023-02-13T14:14:56.486Z,1.30
2023-02-13T14:17:45.272Z,1.50
2023-02-13T14:20:31.791Z,1.25
2023-02-13T14:23:08.215Z,1.10
2023-02-13T14:25:34.862Z,1.10
2023-02-13T14:28:04.767Z,1.38
2023-02-13T14:30:35.592Z,1.17
2023-02-13T14:33:24.424Z,1.30
2023-02-13T14:36:19.656Z,1.20
2023-02-13T14:38:56.497Z,1.35
2023-02-13T14:41:46.203Z,1.38
2023-02-13T14:44:19.985Z,1.60
2023-02-13T14:46:49.477Z,0.93
2023-02-13T14:49:23.179Z,1.40
2023-02-13T14:51:59.454Z,1.25
2023-02-13T14:54:43.564Z,1.38
2023-02-13T14:57:14.731Z,1.13
2023-02-13T14:59:47.575Z,1.05
2023-02-13T15:02:21.867Z,1.45
2023-02-13T15:05:07.184Z,1.23
2023-02-13T15:07:38.128Z,1.58
2023-02-13T15:10:15.285Z,1.75
2023-02-13T15:12:42.018Z,1.30
2023-02-13T15:15:24.814Z,1.45
2023-02-13T15:17:56.131Z,1.30
2023-02-13T15:20:32.977Z,1.88
2023-02-13T15:23:00.022Z,1.45
2023-02-13T15:25:35.251Z,1.10
2023-02-13T15:28:04.825Z,1.20
2023-02-13T15:30:37.175Z,1.25
2023-02-13T15:33:16.337Z,1.30
2023-02-13T15:35:43.250Z,1.40
2023-02-13T15:38:28.064Z,1.75
2023-02-13T15:41:08.844Z,1.45
2023-02-13T15:43:39.448Z,1.48
2023-02-13T15:46:18.815Z,1.50
2023-02-13T15:48:46.544Z,1.40
2023-02-13T15:51:28.568Z,2.80
2023-02-13T15:53:56.860Z,6.50
2023-02-13T15:56:23.861Z,7.35
2023-02-13T15:58:52.858Z,8.20
2023-02-13T16:01:19.694Z,7.07
2023-02-13T16:03:51.759Z,7.38
2023-02-13T16:06:20.895Z,3.25
2023-02-13T16:08:58.592Z,2.50
2023-02-13T16:11:37.618Z,5.22
2023-02-13T16:14:26.690Z,4.53
2023-02-13T16:17:06.998Z,4.03
2023-02-13T16:19:52.601Z,5.80
2023-02-13T16:22:34.270Z,7.40
2023-02-13T16:25:04.485Z,5.53
2023-02-13T16:27:31.379Z,7.32
2023-02-13T16:30:01.285Z,6.95
2023-02-13T16:32:31.361Z,6.65
2023-02-13T16:35:18.037Z,4.03
2023-02-13T16:37:52.152Z,5.97
2023-02-13T16:43:38.007Z,3.35
2023-02-13T16:46:19.882Z,4.13
2023-02-13T16:48:46.437Z,3.92
2023-02-13T16:51:13.775Z,3.03
2023-02-13T16:53:40.816Z,2.60
2023-02-13T16:56:10.930Z,2.70
2023-02-13T16:58:37.584Z,10.10
2023-02-13T17:01:05.307Z,8.48
2023-02-13T17:03:33.011Z,5.40
2023-02-13T17:06:03.366Z,16.80
2023-02-13T17:08:33.188Z,9.98
2023-02-13T17:11:08.187Z,13.02
2023-02-13T17:13:34.997Z,16.98
2023-02-13T17:16:01.647Z,17.90
2023-02-13T17:18:28.280Z,10.43
2023-02-13T17:20:55.032Z,5.45
2023-02-13T17:23:24.503Z,3.38
2023-02-13T17:25:53.703Z,5.20
2023-02-13T17:28:26.277Z,3.58
2023-02-13T17:30:56.682Z,2.35
2023-02-13T17:33:26.424Z,2.58
2023-02-13T17:35:53.772Z,3.00
2023-02-13T17:38:20.616Z,2.75
2023-02-13T17:40:47.453Z,3.10
2023-02-13T17:43:16.252Z,2.70
2023-02-13T17:45:43.866Z,3.60
2023-02-13T17:48:10.530Z,4.68
2023-02-13T17:50:38.152Z,3.00
2023-02-13T17:53:07.333Z,3.28
2023-02-13T17:55:34.868Z,3.08
2023-02-13T17:58:02.213Z,4.00
2023-02-13T18:00:32.507Z,3.72
2023-02-13T18:03:00.853Z,3.78
2023-02-13T18:05:28.305Z,3.70
2023-02-13T18:07:55.463Z,3.33
2023-02-13T18:10:26.197Z,3.25
2023-02-13T18:12:54.643Z,3.83
2023-02-13T18:15:21.477Z,3.80
2023-02-13T18:17:48.237Z,3.58
2023-02-13T18:20:18.439Z,3.55
2023-02-13T18:22:51.856Z,3.20
2023-02-13T18:25:19.843Z,4.68
2023-02-13T18:27:47.137Z,4.40
2023-02-13T18:30:18.158Z,4.78
2023-02-13T18:32:44.796Z,3.88
2023-02-13T18:35:11.849Z,3.95
2023-02-13T18:37:39.318Z,3.63
2023-02-13T18:40:09.957Z,3.88
2023-02-13T18:42:36.515Z,4.13
2023-02-13T18:45:03.753Z,4.95
2023-02-13T18:47:30.676Z,4.40
2023-02-13T18:49:57.653Z,4.50
2023-02-13T18:52:24.322Z,4.30
2023-02-13T18:54:51.531Z,4.45
2023-02-13T18:57:18.139Z,5.03
2023-02-13T18:59:44.625Z,4.82
2023-02-13T19:02:11.263Z,3.75
2023-02-13T19:04:38.286Z,4.88
2023-02-13T19:07:05.080Z,4.18
2023-02-13T19:09:31.669Z,4.38
2023-02-13T19:11:58.349Z,4.65
2023-02-13T19:14:25.920Z,4.75
2023-02-13T19:16:53.358Z,4.95
2023-02-13T19:19:20.014Z,4.97
2023-02-13T19:21:46.845Z,4.38
2023-02-13T19:24:15.518Z,4.63
2023-02-13T19:26:42.756Z,4.55
2023-02-13T19:29:09.392Z,4.75
2023-02-13T19:31:36.506Z,4.75
2023-02-13T19:34:05.593Z,3.97
2023-02-13T19:36:32.510Z,4.97
2023-02-13T19:39:03.432Z,4.57
2023-02-13T19:41:30.436Z,4.88
2023-02-13T19:43:57.277Z,4.35
2023-02-13T19:46:26.808Z,5.25
2023-02-13T19:48:54.302Z,5.07
2023-02-13T19:51:24.278Z,5.57
2023-02-13T19:54:12.834Z,5.60
2023-02-13T19:56:40.466Z,4.03
2023-02-13T19:59:09.783Z,5.82
2023-02-13T20:01:36.413Z,5.97
2023-02-13T20:04:03.093Z,4.88
2023-02-13T20:06:35.869Z,5.78
2023-02-13T20:09:06.990Z,5.35
2023-02-13T20:11:33.689Z,5.35
2023-02-13T20:14:05.258Z,5.57
2023-02-13T20:16:35.036Z,5.75
2023-02-13T20:19:05.791Z,6.03
2023-02-13T20:21:34.185Z,7.18
2023-02-13T20:24:01.550Z,12.50
2023-02-13T20:26:28.112Z,9.80
2023-02-13T20:28:56.464Z,7.20
2023-02-13T20:31:23.446Z,6.40
2023-02-13T20:33:51.327Z,5.55
2023-02-13T20:36:20.922Z,6.13
2023-02-13T20:38:48.217Z,5.45
2023-02-13T20:41:20.044Z,5.53
2023-02-13T20:43:46.918Z,5.82
2023-02-13T20:46:16.207Z,5.38
2023-02-13T20:48:44.321Z,5.13
2023-02-13T20:51:12.819Z,5.90
2023-02-13T20:53:40.547Z,5.18
2023-02-13T20:56:11.668Z,4.55
2023-02-13T20:58:39.242Z,5.10
2023-02-13T21:01:25.851Z,5.30
2023-02-13T21:03:54.991Z,5.43
2023-02-13T21:06:26.778Z,4.68
2023-02-13T21:08:53.900Z,5.57
2023-02-13T21:11:21.656Z,5.47
2023-02-13T21:13:48.678Z,5.45
2023-02-13T21:16:21.677Z,5.30
2023-02-13T21:18:49.980Z,5.53
2023-02-13T21:21:17.644Z,6.18
2023-02-13T21:23:44.303Z,5.25
2023-02-13T21:26:17.036Z,5.60
2023-02-13T21:28:46.364Z,5.72
2023-02-13T21:31:27.544Z,7.78
2023-02-13T21:33:56.640Z,8.35
2023-02-13T21:36:23.209Z,7.20
2023-02-13T21:38:49.772Z,7.55
2023-02-13T21:41:18.130Z,6.78
2023-02-13T21:43:48.127Z,6.20
2023-02-13T21:46:16.618Z,6.75
2023-02-13T21:48:43.305Z,6.13
2023-02-13T21:51:19.240Z,6.28
2023-02-13T21:53:47.479Z,5.15
2023-02-13T21:56:20.077Z,5.00
2023-02-13T21:58:47.342Z,4.93
2023-02-13T22:01:25.951Z,4.88
2023-02-13T22:03:58.412Z,5.53
2023-02-13T22:06:27.785Z,5.47
2023-02-13T22:09:03.535Z,5.55
2023-02-13T22:11:30.927Z,5.43
2023-02-13T22:14:01.577Z,4.93
2023-02-13T22:16:30.109Z,4.70
2023-02-13T22:18:56.902Z,4.10
2023-02-13T22:21:25.377Z,5.13
2023-02-13T22:23:52.447Z,4.97
2023-02-13T22:26:23.824Z,4.30
2023-02-13T22:28:52.043Z,4.85
2023-02-13T22:31:19.443Z,4.43
2023-02-13T22:33:52.420Z,5.15
2023-02-13T22:36:25.591Z,4.60
2023-02-13T22:38:52.892Z,5.32
2023-02-13T22:41:22.271Z,5.00
2023-02-13T22:43:49.508Z,4.57
2023-02-13T22:46:26.302Z,5.00
2023-02-13T22:48:53.182Z,5.32
2023-02-13T22:51:34.406Z,5.47
2023-02-13T22:54:01.549Z,4.25
2023-02-13T22:56:29.325Z,4.80
2023-02-13T22:58:56.051Z,5.15
2023-02-13T23:01:24.944Z,5.10
2023-02-13T23:03:51.732Z,4.78
2023-02-13T23:06:19.067Z,5.10
2023-02-13T23:08:45.820Z,5.72
2023-02-13T23:11:34.584Z,5.28
2023-02-13T23:14:01.544Z,5.65
2023-02-13T23:16:28.659Z,5.68
2023-02-13T23:18:57.259Z,5.50
2023-02-13T23:21:25.534Z,5.90
2023-02-13T23:23:52.526Z,6.47
2023-02-13T23:26:19.381Z,5.30
2023-02-13T23:28:46.078Z,5.30
2023-02-13T23:31:12.693Z,5.50
2023-02-13T23:33:39.447Z,6.05
2023-02-13T23:36:06.510Z,5.78
2023-02-13T23:38:33.097Z,6.30
2023-02-13T23:41:07.605Z,5.72
2023-02-13T23:43:34.483Z,5.15
2023-02-13T23:46:06.729Z,6.55
2023-02-13T23:48:33.662Z,5.95
2023-02-13T23:51:01.136Z,5.82
2023-02-13T23:53:28.040Z,5.65
2023-02-13T23:55:55.086Z,5.78
2023-02-13T23:58:22.048Z,5.80
